Time;durP1;ratioP1;P1;durP2;ratioP2;P2;SDS_P1;SDS_P2;PMS_P1;PMS_P2;Temp;Humidity;BMP_temperature;BMP_pressure;BME280_temperature;BME280_humidity;BME280_pressure;Samples;Min_cycle;Max_cycle;Signal;HPM_P1;HPM_P2
2022/07/10 00:00:57;;;;;;;4.77;3.00;;;13.50;99.90;;;;;;4997930;28;20563;-62
2022/07/10 00:03:25;;;;;;;5.60;2.50;;;13.40;99.90;;;;;;4998549;28;20556;-62
2022/07/10 00:05:53;;;;;;;8.20;3.07;;;13.30;99.90;;;;;;4999286;28;20841;-62
2022/07/10 00:08:23;;;;;;;3.83;3.00;;;13.20;99.90;;;;;;4999362;28;20465;-62
2022/07/10 00:10:55;;;;;;;4.20;2.50;;;13.20;99.90;;;;;;4998988;28;20461;-62
2022/07/10 00:13:22;;;;;;;4.10;2.63;;;13.20;99.90;;;;;;4998935;28;20564;-62
2022/07/10 00:15:49;;;;;;;6.50;2.80;;;13.20;99.90;;;;;;4998923;28;20503;-62
2022/07/10 00:18:16;;;;;;;4.80;2.83;;;13.30;99.90;;;;;;4999044;28;20897;-62
2022/07/10 00:20:44;;;;;;;6.50;2.97;;;13.20;99.90;;;;;;4998252;28;20496;-62
2022/07/10 00:23:13;;;;;;;5.30;3.10;;;13.20;99.90;;;;;;4998394;28;20457;-62
2022/07/10 00:25:41;;;;;;;7.57;2.77;;;13.30;99.90;;;;;;4998778;28;20924;-62
2022/07/10 00:28:11;;;;;;;4.50;2.80;;;13.30;99.90;;;;;;4998922;28;20461;-62
2022/07/10 00:30:42;;;;;;;4.30;2.50;;;13.20;99.90;;;;;;4998028;28;20568;-62
2022/07/10 00:33:11;;;;;;;7.73;3.13;;;13.30;99.90;;;;;;4998891;28;20817;-62
2022/07/10 00:35:40;;;;;;;7.17;3.13;;;13.20;99.90;;;;;;4997959;28;20496;-62
2022/07/10 00:38:07;;;;;;;4.33;1.93;;;13.20;99.90;;;;;;4998595;28;20847;-62
2022/07/10 00:40:36;;;;;;;4.33;2.37;;;13.10;99.90;;;;;;4998244;28;20586;-63
2022/07/10 00:43:17;;;;;;;4.47;2.77;;;13.00;99.90;;;;;;4998062;28;20461;-63
2022/07/10 00:45:44;;;;;;;9.20;2.70;;;13.10;99.90;;;;;;4998376;28;20472;-63
2022/07/10 00:48:11;;;;;;;4.10;2.43;;;13.00;99.90;;;;;;4998450;28;20762;-63
2022/07/10 00:50:41;;;;;;;4.03;2.23;;;13.10;99.90;;;;;;4998201;28;20492;-63
2022/07/10 00:53:08;;;;;;;3.47;2.03;;;13.10;99.90;;;;;;4998117;28;20461;-62
2022/07/10 00:55:41;;;;;;;5.90;2.17;;;13.10;99.90;;;;;;4998166;28;20889;-62
2022/07/10 00:58:09;;;;;;;4.67;2.33;;;13.10;99.90;;;;;;4998482;28;20507;-63
2022/07/10 01:00:38;;;;;;;6.37;2.63;;;13.10;99.90;;;;;;4997677;28;20497;-63
2022/07/10 01:03:05;;;;;;;5.73;2.63;;;13.20;99.90;;;;;;4998098;28;20468;-62
2022/07/10 01:05:36;;;;;;;3.20;2.10;;;13.20;99.90;;;;;;4997614;28;20472;-62
2022/07/10 01:08:04;;;;;;;7.20;2.57;;;13.10;99.90;;;;;;4998573;28;20532;-63
2022/07/10 01:10:33;;;;;;;3.40;2.23;;;13.20;99.90;;;;;;4998079;28;20535;-62
2022/07/10 01:13:03;;;;;;;5.17;2.57;;;13.20;99.90;;;;;;4997123;28;20476;-63
2022/07/10 01:15:32;;;;;;;8.20;3.03;;;13.30;99.90;;;;;;5014182;28;20527;-63
2022/07/10 01:18:04;;;;;;;3.53;2.43;;;13.30;99.90;;;;;;5014310;28;20483;-63
2022/07/10 01:20:32;;;;;;;3.87;2.70;;;13.30;99.90;;;;;;5011406;28;20858;-62
2022/07/10 01:23:04;;;;;;;5.07;2.43;;;13.30;99.90;;;;;;5017054;28;20492;-62
2022/07/10 01:25:31;;;;;;;9.37;2.43;;;13.40;99.90;;;;;;5017464;28;20928;-63
2022/07/10 01:27:58;;;;;;;3.80;2.27;;;13.40;99.90;;;;;;5017243;28;20470;-63
2022/07/10 01:30:26;;;;;;;8.33;2.90;;;13.30;99.90;;;;;;5017534;28;20529;-63
2022/07/10 01:32:53;;;;;;;6.77;2.80;;;13.40;99.90;;;;;;5017022;28;20466;-63
2022/07/10 01:35:20;;;;;;;7.90;3.40;;;13.40;99.90;;;;;;5016405;28;20952;-63
2022/07/10 01:37:52;;;;;;;5.03;2.60;;;13.50;99.90;;;;;;5016753;28;20920;-63
2022/07/10 01:40:21;;;;;;;4.90;2.37;;;13.50;99.90;;;;;;5023475;28;20751;-63
2022/07/10 01:42:50;;;;;;;5.23;2.80;;;13.50;99.90;;;;;;5023368;28;20491;-63
2022/07/10 01:45:19;;;;;;;4.97;3.00;;;13.50;99.90;;;;;;5023613;28;20559;-63
2022/07/10 01:47:46;;;;;;;4.43;2.83;;;13.40;99.90;;;;;;5023887;28;20727;-63
2022/07/10 01:50:13;;;;;;;4.10;2.50;;;13.50;99.90;;;;;;5023427;28;20906;-62
2022/07/10 01:52:41;;;;;;;5.03;3.13;;;13.60;99.90;;;;;;5023248;28;20550;-63
2022/07/10 01:55:09;;;;;;;4.83;2.73;;;13.50;99.90;;;;;;5023427;28;20438;-62
2022/07/10 01:57:38;;;;;;;5.63;2.83;;;13.50;99.90;;;;;;5023392;28;20918;-62
2022/07/10 02:00:09;;;;;;;5.23;2.43;;;13.50;99.90;;;;;;5023714;28;20474;-62
2022/07/10 02:02:36;;;;;;;5.23;2.80;;;13.60;99.90;;;;;;5023091;28;20932;-62
2022/07/10 02:05:02;;;;;;;4.27;2.40;;;13.60;99.90;;;;;;5023353;28;20987;-63
2022/07/10 02:07:32;;;;;;;4.10;2.60;;;13.60;99.90;;;;;;5023245;28;20459;-62
2022/07/10 02:10:00;;;;;;;4.97;2.97;;;13.50;99.90;;;;;;5023915;28;20570;-62
2022/07/10 02:12:27;;;;;;;6.47;3.07;;;13.50;99.90;;;;;;5023715;28;20525;-63
2022/07/10 02:15:00;;;;;;;3.70;2.60;;;13.50;99.90;;;;;;5023458;28;20841;-63
2022/07/10 02:17:27;;;;;;;6.10;2.23;;;13.50;99.90;;;;;;5023283;28;20470;-63
2022/07/10 02:19:54;;;;;;;4.67;3.10;;;13.70;99.90;;;;;;5023505;28;20467;-62
2022/07/10 02:22:21;;;;;;;8.77;2.87;;;13.50;99.90;;;;;;5023807;28;20491;-63
2022/07/10 02:24:48;;;;;;;5.80;2.93;;;13.50;99.90;;;;;;5023334;28;20439;-63
2022/07/10 02:27:15;;;;;;;3.67;2.80;;;13.40;99.90;;;;;;5023235;28;20464;-63
2022/07/10 02:29:43;;;;;;;6.33;3.17;;;13.50;99.90;;;;;;5023406;28;20893;-63
2022/07/10 02:32:12;;;;;;;4.93;2.87;;;13.50;99.90;;;;;;5023677;28;20463;-62
2022/07/10 02:34:39;;;;;;;4.83;2.97;;;13.40;99.90;;;;;;5022992;28;20463;-63
2022/07/10 02:37:06;;;;;;;6.90;3.30;;;13.30;99.90;;;;;;5022769;28;20546;-63
2022/07/10 02:39:34;;;;;;;7.37;3.03;;;13.20;99.90;;;;;;5023134;28;20764;-63
2022/07/10 02:42:01;;;;;;;9.47;3.67;;;13.30;99.90;;;;;;5023284;28;20954;-62
2022/07/10 02:44:29;;;;;;;6.83;3.30;;;13.20;99.90;;;;;;5022613;28;21240;-63
2022/07/10 02:46:56;;;;;;;7.73;3.60;;;13.20;99.90;;;;;;5022894;28;20463;-63
2022/07/10 02:49:25;;;;;;;6.97;2.63;;;13.10;99.90;;;;;;5022528;28;20463;-62
2022/07/10 02:51:53;;;;;;;5.07;2.70;;;13.10;99.90;;;;;;5018852;28;20468;-62
2022/07/10 02:54:23;;;;;;;4.70;2.83;;;13.10;99.90;;;;;;5020180;28;20463;-63
2022/07/10 02:56:50;;;;;;;5.87;3.37;;;13.10;99.90;;;;;;5019693;28;20461;-63
2022/07/10 02:59:18;;;;;;;6.17;3.00;;;13.10;99.90;;;;;;5019807;28;20468;-62
2022/07/10 03:01:45;;;;;;;6.57;2.60;;;13.10;99.90;;;;;;5019253;28;20873;-62
2022/07/10 03:04:14;;;;;;;4.90;3.00;;;13.00;99.90;;;;;;5019961;28;20558;-62
2022/07/10 03:06:43;;;;;;;9.27;2.77;;;13.00;99.90;;;;;;5019378;28;20478;-62
2022/07/10 03:09:13;;;;;;;4.73;2.70;;;13.00;99.90;;;;;;5019871;28;20463;-62
2022/07/10 03:11:40;;;;;;;3.70;3.10;;;13.00;99.90;;;;;;5019481;28;20860;-62
2022/07/10 03:14:08;;;;;;;6.03;2.70;;;12.90;99.90;;;;;;5019443;28;20463;-63
2022/07/10 03:16:35;;;;;;;6.33;3.17;;;12.80;99.90;;;;;;5019711;28;20470;-63
2022/07/10 03:19:02;;;;;;;6.40;3.40;;;12.80;99.90;;;;;;5020039;28;20464;-63
2022/07/10 03:21:33;;;;;;;4.27;3.00;;;12.80;99.90;;;;;;5019504;28;20543;-62
2022/07/10 03:24:06;;;;;;;6.73;3.50;;;12.80;99.90;;;;;;5019496;28;20464;-62
2022/07/10 03:26:33;;;;;;;6.53;2.80;;;12.80;99.90;;;;;;5019444;28;20504;-63
2022/07/10 03:29:01;;;;;;;5.50;3.03;;;12.80;99.90;;;;;;5019506;28;20763;-62
2022/07/10 03:31:28;;;;;;;5.10;2.90;;;12.90;99.90;;;;;;5019516;28;20460;-63
2022/07/10 03:33:56;;;;;;;3.30;2.83;;;12.90;99.90;;;;;;5019267;28;20480;-63
2022/07/10 03:36:26;;;;;;;9.13;3.10;;;12.90;99.90;;;;;;5019409;28;20902;-63
2022/07/10 03:38:53;;;;;;;6.97;3.23;;;12.90;99.90;;;;;;5019350;28;20769;-63
2022/07/10 03:41:25;;;;;;;6.60;2.97;;;13.00;99.90;;;;;;5019204;28;20944;-62
2022/07/10 03:43:52;;;;;;;8.10;2.70;;;13.10;99.90;;;;;;5019433;28;20471;-63
2022/07/10 03:46:20;;;;;;;6.30;3.00;;;13.00;99.90;;;;;;5018940;28;20468;-62
2022/07/10 03:48:47;;;;;;;5.20;2.90;;;13.00;99.90;;;;;;5019067;28;20559;-63
2022/07/10 03:51:16;;;;;;;5.53;2.83;;;13.10;99.90;;;;;;5019114;28;20471;-63
2022/07/10 03:53:43;;;;;;;6.30;2.87;;;13.10;99.90;;;;;;5018610;28;20470;-63
2022/07/10 03:57:53;;;;;;;6.23;2.60;;;13.20;99.90;;;;;;5018982;28;20465;-62
2022/07/10 03:59:02;;;;;;;4.80;3.53;;;13.30;99.90;;;;;;5019009;28;20460;-62
2022/07/10 04:01:29;;;;;;;8.30;2.97;;;13.20;99.90;;;;;;5017845;28;20764;-62
2022/07/10 04:03:59;;;;;;;4.03;2.50;;;13.10;99.90;;;;;;5018105;28;20464;-63
2022/07/10 04:06:26;;;;;;;7.23;2.70;;;13.20;99.90;;;;;;5018214;28;20463;-63
2022/07/10 04:08:57;;;;;;;7.67;3.40;;;13.20;99.90;;;;;;5018716;28;20467;-62
2022/07/10 04:11:24;;;;;;;5.90;2.70;;;13.30;99.90;;;;;;5019079;28;21502;-63
2022/07/10 04:13:51;;;;;;;10.60;3.03;;;13.30;99.90;;;;;;5018324;28;20464;-63
2022/07/10 04:16:22;;;;;;;8.47;3.07;;;13.20;99.90;;;;;;5018420;28;20468;-63
2022/07/10 04:18:50;;;;;;;8.93;3.30;;;13.20;99.90;;;;;;5018974;28;20460;-63
2022/07/10 04:21:19;;;;;;;5.27;2.93;;;13.20;99.90;;;;;;5018907;28;20463;-63
2022/07/10 04:23:47;;;;;;;10.87;3.43;;;13.30;99.90;;;;;;5018098;28;20495;-62
2022/07/10 04:26:16;;;;;;;4.97;3.13;;;13.30;99.90;;;;;;5018207;28;20472;-63
2022/07/10 04:28:43;;;;;;;8.23;3.40;;;13.40;99.90;;;;;;5018489;28;20495;-63
2022/07/10 04:31:10;;;;;;;9.43;3.77;;;13.30;99.90;;;;;;5018248;28;20468;-63
2022/07/10 04:33:39;;;;;;;4.50;2.83;;;13.30;99.90;;;;;;5017493;28;20464;-63
2022/07/10 04:36:07;;;;;;;6.33;2.90;;;13.40;99.90;;;;;;5017972;28;20991;-63
2022/07/10 04:38:35;;;;;;;5.20;2.90;;;13.40;99.90;;;;;;5018211;28;20893;-63
2022/07/10 04:41:02;;;;;;;8.50;3.40;;;13.40;99.90;;;;;;5018528;28;20467;-63
2022/07/10 04:43:31;;;;;;;9.50;3.50;;;13.40;99.90;;;;;;5017718;28;20527;-63
2022/07/10 04:46:00;;;;;;;5.63;2.90;;;13.30;99.90;;;;;;5017781;28;20470;-63
2022/07/10 04:48:30;;;;;;;6.87;2.63;;;13.30;99.90;;;;;;5017781;28;20468;-63
2022/07/10 04:50:59;;;;;;;6.00;2.70;;;13.40;99.90;;;;;;5017824;28;20475;-63
2022/07/10 04:53:26;;;;;;;7.10;3.10;;;13.50;99.90;;;;;;5016774;28;20948;-63
2022/07/10 04:55:53;;;;;;;7.83;3.20;;;13.60;99.90;;;;;;5017945;28;20473;-63
2022/07/10 04:58:22;;;;;;;8.30;3.03;;;13.50;99.90;;;;;;5018042;28;20460;-63
2022/07/10 05:00:53;;;;;;;12.53;3.83;;;13.60;99.90;;;;;;5018318;28;20463;-63
2022/07/10 05:03:22;;;;;;;9.10;3.00;;;13.60;99.90;;;;;;5018141;28;20586;-63
2022/07/10 05:05:51;;;;;;;7.10;2.80;;;13.80;99.90;;;;;;5017227;28;20475;-63
2022/07/10 05:08:19;;;;;;;6.67;2.70;;;13.70;99.90;;;;;;5017487;28;20507;-63
2022/07/10 05:10:47;;;;;;;6.67;3.00;;;13.80;99.90;;;;;;5018032;28;20464;-62
2022/07/10 05:13:14;;;;;;;8.57;3.10;;;14.00;99.90;;;;;;5016396;28;20480;-63
2022/07/10 05:15:41;;;;;;;5.50;2.60;;;14.10;99.90;;;;;;5017097;28;20563;-63
2022/07/10 05:18:09;;;;;;;4.03;2.67;;;13.90;99.90;;;;;;5018064;28;20467;-63
2022/07/10 05:20:41;;;;;;;5.70;2.83;;;13.70;99.90;;;;;;5017742;28;20470;-63
2022/07/10 05:23:08;;;;;;;7.30;2.97;;;13.70;99.90;;;;;;5017440;28;20502;-63
2022/07/10 05:25:37;;;;;;;7.77;3.77;;;13.80;99.90;;;;;;5017266;28;20464;-63
2022/07/10 05:28:06;;;;;;;5.33;2.77;;;13.90;99.90;;;;;;5016784;28;20464;-63
2022/07/10 05:30:34;;;;;;;7.53;2.50;;;14.00;99.90;;;;;;5017419;28;20468;-63
2022/07/10 05:33:02;;;;;;;5.30;2.67;;;14.10;99.90;;;;;;5017409;28;20471;-63
2022/07/10 05:35:29;;;;;;;5.40;2.87;;;14.30;99.90;;;;;;5016863;28;20484;-63
2022/07/10 05:37:57;;;;;;;7.87;3.00;;;13.90;99.90;;;;;;5017435;28;20470;-63
2022/07/10 05:40:24;;;;;;;8.07;2.97;;;13.90;99.90;;;;;;5017306;28;21015;-63
2022/07/10 05:42:53;;;;;;;7.97;3.60;;;14.20;99.90;;;;;;5016846;28;20933;-63
2022/07/10 05:45:23;;;;;;;4.33;2.57;;;14.20;99.90;;;;;;5017644;28;20472;-63
2022/07/10 05:47:50;;;;;;;4.40;2.23;;;14.30;99.90;;;;;;5016959;28;20471;-63
2022/07/10 05:50:18;;;;;;;4.83;2.33;;;14.40;99.90;;;;;;5017254;28;20534;-63
2022/07/10 05:52:45;;;;;;;5.90;2.63;;;14.20;99.90;;;;;;5017606;28;20466;-63
2022/07/10 05:55:17;;;;;;;6.80;2.57;;;14.20;99.90;;;;;;5017272;28;20475;-62
2022/07/10 05:57:44;;;;;;;10.57;3.07;;;14.20;99.90;;;;;;5016849;28;20442;-62
2022/07/10 06:00:15;;;;;;;9.13;3.33;;;14.30;99.90;;;;;;5016625;28;20464;-63
2022/07/10 06:02:43;;;;;;;6.30;2.90;;;14.50;99.90;;;;;;5016333;28;20483;-63
2022/07/10 06:05:11;;;;;;;7.80;2.60;;;14.50;99.90;;;;;;5017153;28;20813;-63
2022/07/10 06:07:38;;;;;;;4.00;2.40;;;14.40;99.90;;;;;;5016711;28;20468;-63
2022/07/10 06:10:06;;;;;;;4.90;2.60;;;14.40;99.90;;;;;;5016986;28;20463;-63
2022/07/10 06:12:38;;;;;;;6.23;2.97;;;14.50;99.90;;;;;;5016913;28;20460;-63
2022/07/10 06:15:06;;;;;;;5.73;2.73;;;14.50;99.90;;;;;;5017399;28;20466;-63
2022/07/10 06:17:35;;;;;;;3.37;2.70;;;14.60;99.90;;;;;;5016908;28;20975;-63
2022/07/10 06:20:06;;;;;;;7.07;3.30;;;14.50;99.90;;;;;;5016979;28;20470;-63
2022/07/10 06:22:33;;;;;;;7.63;3.20;;;14.40;99.90;;;;;;5016797;28;20579;-63
2022/07/10 06:25:04;;;;;;;5.57;3.20;;;14.50;99.90;;;;;;5018505;28;20467;-63
2022/07/10 06:27:32;;;;;;;4.90;2.43;;;14.70;99.90;;;;;;5020619;28;20775;-63
2022/07/10 06:30:00;;;;;;;6.23;3.20;;;14.80;99.90;;;;;;5020479;28;20468;-62
2022/07/10 06:32:35;;;;;;;5.97;2.77;;;14.80;99.90;;;;;;5020641;28;20472;-63
2022/07/10 06:35:06;;;;;;;5.00;2.57;;;15.10;99.90;;;;;;5020777;28;20494;-63
2022/07/10 06:37:34;;;;;;;5.70;2.80;;;15.30;99.90;;;;;;5020580;28;20474;-64
2022/07/10 06:40:01;;;;;;;6.50;2.40;;;15.60;99.90;;;;;;5020664;28;20741;-65
2022/07/10 06:42:29;;;;;;;4.80;2.73;;;16.00;99.90;;;;;;5021475;28;20463;-63
2022/07/10 06:44:56;;;;;;;5.70;2.20;;;15.60;99.90;;;;;;5020383;28;20458;-63
2022/07/10 06:50:12;;;;;;;3.73;2.83;;;15.60;99.90;;;;;;5020122;28;20874;-64
2022/07/10 06:52:43;;;;;;;6.80;2.80;;;15.70;99.90;;;;;;5020017;28;20509;-63
2022/07/10 06:55:11;;;;;;;5.40;2.27;;;16.00;99.90;;;;;;5019968;28;20495;-59
2022/07/10 06:57:59;;;;;;;7.50;2.77;;;16.00;99.90;;;;;;5020220;28;20780;-63
2022/07/10 07:00:27;;;;;;;6.50;2.60;;;15.70;99.90;;;;;;5020723;28;20861;-64
2022/07/10 07:02:58;;;;;;;3.87;2.60;;;15.90;99.90;;;;;;5019558;28;20491;-64
2022/07/10 07:05:30;;;;;;;5.73;2.87;;;16.30;99.90;;;;;;5022223;28;20518;-63
2022/07/10 07:07:57;;;;;;;4.90;2.80;;;15.90;99.90;;;;;;5023178;28;20463;-63
2022/07/10 07:10:29;;;;;;;7.00;2.20;;;15.60;99.90;;;;;;5022946;28;20468;-62
2022/07/10 07:12:59;;;;;;;5.50;2.93;;;15.40;99.90;;;;;;5022414;28;20504;-62
2022/07/10 07:15:30;;;;;;;9.03;3.00;;;15.20;99.90;;;;;;5022019;28;20467;-63
2022/07/10 07:18:07;;;;;;;7.20;2.90;;;15.00;99.90;;;;;;5021494;28;20468;-63
2022/07/10 07:23:22;;;;;;;6.63;2.53;;;14.90;99.90;;;;;;5020462;28;20574;-59
2022/07/10 07:25:55;;;;;;;3.50;2.70;;;14.90;99.90;;;;;;5020937;28;20893;-63
2022/07/10 07:28:25;;;;;;;3.20;2.23;;;15.00;99.90;;;;;;5020644;28;20928;-62
2022/07/10 07:30:53;;;;;;;3.97;2.47;;;14.90;99.90;;;;;;5020515;28;20900;-63
2022/07/10 07:33:22;;;;;;;6.67;2.87;;;15.00;99.90;;;;;;5021174;28;20889;-63
2022/07/10 07:35:52;;;;;;;5.43;3.00;;;15.20;99.90;;;;;;5020648;28;20948;-63
2022/07/10 07:38:19;;;;;;;4.00;2.73;;;15.10;99.90;;;;;;5020768;28;20468;-63
2022/07/10 07:40:50;;;;;;;4.70;3.27;;;15.30;99.90;;;;;;5019987;28;20504;-63
2022/07/10 07:43:24;;;;;;;5.47;3.17;;;15.40;99.90;;;;;;5021492;28;20959;-63
2022/07/10 07:45:57;;;;;;;9.50;2.70;;;15.40;99.90;;;;;;5021032;28;20559;-62
2022/07/10 07:48:25;;;;;;;6.50;2.70;;;15.10;99.90;;;;;;5020353;28;20476;-63
2022/07/10 07:50:57;;;;;;;8.00;2.70;;;15.10;99.90;;;;;;5019873;28;20464;-63
2022/07/10 07:53:24;;;;;;;5.33;3.13;;;15.00;99.90;;;;;;5020665;28;20497;-63
2022/07/10 07:55:52;;;;;;;3.80;2.20;;;14.70;99.90;;;;;;5020572;28;20495;-63
2022/07/10 07:58:25;;;;;;;7.10;2.50;;;14.60;99.90;;;;;;5021488;28;20468;-61
2022/07/10 08:00:53;;;;;;;8.13;2.73;;;14.40;99.90;;;;;;5022861;28;20472;-63
2022/07/10 08:03:20;;;;;;;8.43;2.50;;;14.40;99.90;;;;;;5022620;28;20492;-61
2022/07/10 08:05:49;;;;;;;9.53;2.73;;;14.80;99.90;;;;;;5022165;28;20566;-63
2022/07/10 08:08:18;;;;;;;9.40;3.73;;;15.00;99.90;;;;;;5019319;28;20468;-63
2022/07/10 08:10:46;;;;;;;3.53;2.60;;;14.90;99.90;;;;;;5018641;28;20523;-63
2022/07/10 08:13:13;;;;;;;6.70;3.63;;;14.50;99.90;;;;;;5017390;28;20490;-63
2022/07/10 08:15:40;;;;;;;4.77;2.87;;;14.60;99.90;;;;;;5018667;28;20491;-63
2022/07/10 08:18:10;;;;;;;9.57;3.10;;;14.50;99.90;;;;;;5018689;28;20471;-63
2022/07/10 08:20:37;;;;;;;6.27;2.90;;;14.70;99.90;;;;;;5018905;28;20470;-63
2022/07/10 08:23:08;;;;;;;6.20;2.30;;;14.80;99.90;;;;;;5020028;28;20491;-63
2022/07/10 08:25:41;;;;;;;8.60;3.00;;;14.80;99.90;;;;;;5021763;28;20450;-63
2022/07/10 08:28:09;;;;;;;5.50;2.40;;;14.70;99.90;;;;;;5018709;28;20475;-62
2022/07/10 08:30:41;;;;;;;7.50;3.80;;;14.30;99.90;;;;;;5018441;28;20474;-63
2022/07/10 08:33:09;;;;;;;5.83;3.30;;;14.40;99.90;;;;;;5018154;28;20468;-63
2022/07/10 08:35:37;;;;;;;6.57;2.77;;;14.70;99.90;;;;;;5018232;28;20529;-63
2022/07/10 08:38:05;;;;;;;10.07;4.20;;;14.80;99.90;;;;;;5001861;28;20866;-63
2022/07/10 08:40:39;;;;;;;5.50;2.87;;;15.00;99.90;;;;;;4978630;28;20491;-63
2022/07/10 08:43:11;;;;;;;6.30;2.37;;;14.90;99.90;;;;;;4978652;28;20469;-63
2022/07/10 08:45:43;;;;;;;6.47;2.80;;;14.90;99.90;;;;;;4978735;28;20500;-62
2022/07/10 08:48:15;;;;;;;8.73;3.60;;;14.80;99.90;;;;;;4978046;28;20466;-63
2022/07/10 08:50:51;;;;;;;8.83;3.67;;;14.40;99.90;;;;;;4978529;28;20568;-62
2022/07/10 08:53:28;;;;;;;3.83;2.60;;;14.60;99.90;;;;;;4979162;28;20479;-63
2022/07/10 08:55:55;;;;;;;9.50;3.20;;;14.70;99.90;;;;;;4978756;28;20472;-62
2022/07/10 08:58:33;;;;;;;6.23;3.20;;;14.60;99.90;;;;;;4978291;28;20466;-63
2022/07/10 09:01:01;;;;;;;9.07;3.37;;;14.50;99.90;;;;;;4978992;28;20879;-62
2022/07/10 09:03:31;;;;;;;6.57;3.53;;;14.50;99.90;;;;;;4978121;28;20500;-63
2022/07/10 09:06:00;;;;;;;8.17;3.47;;;14.60;99.90;;;;;;4978835;28;20505;-62
2022/07/10 09:08:31;;;;;;;6.83;3.37;;;14.60;99.90;;;;;;4978660;28;20836;-63
2022/07/10 09:11:16;;;;;;;9.33;3.40;;;14.70;99.90;;;;;;4978450;28;20444;-63
2022/07/10 09:14:00;;;;;;;9.57;3.50;;;15.00;99.90;;;;;;4978680;28;20559;-63
2022/07/10 09:16:29;;;;;;;9.70;3.87;;;15.20;99.90;;;;;;4978250;28;20464;-63
2022/07/10 09:18:57;;;;;;;4.43;3.27;;;15.20;99.90;;;;;;4978206;28;20466;-63
2022/07/10 09:21:34;;;;;;;5.50;3.20;;;15.10;99.90;;;;;;4978320;28;20480;-63
2022/07/10 09:24:08;;;;;;;4.97;3.33;;;14.90;1.00;;;;;;4978550;28;20493;-63
2022/07/10 09:26:37;;;;;;;6.30;3.63;;;14.40;1.00;;;;;;4978049;28;20565;-63
2022/07/10 09:29:13;;;;;;;5.27;3.30;;;14.60;1.00;;;;;;4978452;28;20477;-63
2022/07/10 09:31:53;;;;;;;5.00;3.00;;;14.70;1.00;;;;;;4978122;28;20465;-63
2022/07/10 09:34:37;;;;;;;4.30;3.40;;;14.70;1.00;;;;;;4978490;28;20473;-63
2022/07/10 09:37:27;;;;;;;8.53;4.23;;;14.70;1.00;;;;;;4995814;28;20983;-63
2022/07/10 09:39:59;;;;;;;6.33;2.90;;;15.10;1.00;;;;;;4997793;28;20542;-63
2022/07/10 09:42:28;;;;;;;4.30;2.63;;;15.50;1.00;;;;;;4997826;28;20444;-64
2022/07/10 09:45:20;;;;;;;5.57;2.67;;;15.50;1.00;;;;;;5007334;28;20492;-62
2022/07/10 09:47:56;;;;;;;4.80;2.97;;;15.30;99.90;;;;;;5009695;28;20538;-63
2022/07/10 09:50:31;;;;;;;4.10;2.73;;;15.00;1.00;;;;;;5017670;28;20459;-63
2022/07/10 09:53:05;;;;;;;3.70;3.10;;;15.00;1.00;;;;;;5017427;28;20554;-63
2022/07/10 09:55:34;;;;;;;3.47;2.90;;;15.10;1.00;;;;;;5017142;28;20456;-63
2022/07/10 09:58:04;;;;;;;5.50;2.90;;;15.00;1.00;;;;;;5017315;28;20838;-63
2022/07/10 10:00:36;;;;;;;5.20;3.63;;;15.20;1.00;;;;;;5018602;28;20460;-63
2022/07/10 10:03:05;;;;;;;4.27;3.20;;;15.40;1.00;;;;;;5020692;28;20572;-63
2022/07/10 10:05:43;;;;;;;3.80;3.50;;;15.30;1.00;;;;;;5020872;28;20790;-63
2022/07/10 10:08:18;;;;;;;4.63;3.50;;;15.50;1.00;;;;;;5020998;28;20467;-63
2022/07/10 10:10:47;;;;;;;6.00;3.77;;;15.50;1.00;;;;;;5020388;28;20463;-63
2022/07/10 10:13:19;;;;;;;4.20;3.80;;;15.70;1.00;;;;;;5020406;28;20468;-63
2022/07/10 10:15:51;;;;;;;5.03;3.90;;;15.60;1.00;;;;;;5020892;28;20464;-63
2022/07/10 10:18:29;;;;;;;4.40;3.93;;;15.70;1.00;;;;;;5021268;28;20503;-63
2022/07/10 10:20:56;;;;;;;5.83;4.80;;;15.70;1.00;;;;;;5020643;28;20434;-62
2022/07/10 10:23:30;;;;;;;4.80;4.07;;;15.50;1.00;;;;;;5020169;28;20460;-63
2022/07/10 10:25:58;;;;;;;5.40;4.07;;;15.70;1.00;;;;;;5020585;28;20438;-63
2022/07/10 10:28:26;;;;;;;5.97;4.97;;;15.70;1.00;;;;;;5020979;28;20430;-62
2022/07/10 10:31:01;;;;;;;4.30;3.90;;;15.20;1.00;;;;;;5020079;28;20529;-62
2022/07/10 10:33:55;;;;;;;5.43;4.03;;;15.20;1.00;;;;;;5020613;28;20460;-62
2022/07/10 10:36:45;;;;;;;4.90;4.37;;;15.30;1.00;;;;;;5019694;28;20852;-63
2022/07/10 10:39:16;;;;;;;7.67;4.83;;;15.10;1.00;;;;;;5019716;28;20459;-63
2022/07/10 10:41:48;;;;;;;4.83;4.30;;;15.30;1.00;;;;;;5020242;28;20464;-62
2022/07/10 10:44:31;;;;;;;5.17;4.67;;;15.50;1.00;;;;;;5020180;28;20924;-62
2022/07/10 10:47:10;;;;;;;7.10;5.27;;;15.80;1.00;;;;;;5020554;28;20835;-63
2022/07/10 10:50:01;;;;;;;5.27;4.77;;;15.30;1.00;;;;;;5020326;28;20467;-63
2022/07/10 10:52:31;;;;;;;6.10;5.40;;;15.40;1.00;;;;;;5020233;28;20524;-63
2022/07/10 10:55:08;;;;;;;11.40;5.23;;;15.40;1.00;;;;;;5019802;28;20518;-63
2022/07/10 10:57:40;;;;;;;7.50;5.70;;;15.50;1.00;;;;;;5019969;28;20467;-63
2022/07/10 11:00:14;;;;;;;6.30;5.60;;;15.40;1.00;;;;;;5020248;28;20506;-62
2022/07/10 11:02:45;;;;;;;6.57;5.97;;;15.30;1.00;;;;;;5019763;28;20522;-63
2022/07/10 11:05:44;;;;;;;8.83;6.60;;;15.20;1.00;;;;;;5019558;28;20496;-63
2022/07/10 11:08:13;;;;;;;9.90;6.20;;;15.40;1.00;;;;;;5020183;28;20563;-62
2022/07/10 11:10:44;;;;;;;9.20;8.40;;;15.10;1.00;;;;;;5018650;28;20894;-62
2022/07/10 11:13:29;;;;;;;12.17;9.47;;;15.20;1.00;;;;;;5022230;28;20446;-62
2022/07/10 11:15:59;;;;;;;10.63;9.67;;;15.30;1.00;;;;;;5000294;28;20465;-62
2022/07/10 11:18:33;;;;;;;11.60;10.30;;;15.40;1.00;;;;;;5028081;28;20462;-62
2022/07/10 11:21:07;;;;;;;9.40;8.57;;;15.70;1.00;;;;;;5039385;28;20463;-63
2022/07/10 11:23:58;;;;;;;10.17;8.73;;;15.90;1.00;;;;;;5039076;28;20463;-63
2022/07/10 11:26:35;;;;;;;14.37;10.33;;;16.20;1.00;;;;;;5031174;28;20539;-63
2022/07/10 11:29:05;;;;;;;12.00;10.90;;;16.60;1.00;;;;;;5017870;28;20476;-64
2022/07/10 11:31:39;;;;;;;10.70;9.60;;;16.80;1.00;;;;;;5019421;28;20460;-63
2022/07/10 11:34:08;;;;;;;11.80;10.80;;;17.00;1.00;;;;;;5019339;28;20475;-63
2022/07/10 11:36:35;;;;;;;11.97;10.83;;;17.20;99.90;;;;;;5018618;28;20491;-63
2022/07/10 11:39:05;;;;;;;13.33;12.13;;;17.20;99.90;;;;;;5019035;28;20464;-63
2022/07/10 11:41:33;;;;;;;14.00;12.60;;;16.80;99.90;;;;;;5019230;28;20951;-63
2022/07/10 11:44:07;;;;;;;13.27;12.17;;;16.90;99.90;;;;;;5019088;28;20464;-62
2022/07/10 11:46:43;;;;;;;13.60;12.30;;;16.80;99.90;;;;;;5018659;28;20463;-63
2022/07/10 11:49:17;;;;;;;15.13;13.83;;;16.60;1.00;;;;;;5019303;28;20478;-63
2022/07/10 11:51:45;;;;;;;14.60;13.30;;;16.70;1.00;;;;;;5019083;28;20449;-62
2022/07/10 11:54:15;;;;;;;15.20;13.73;;;16.80;1.00;;;;;;5018818;28;20801;-61
2022/07/10 11:56:48;;;;;;;14.87;13.67;;;16.30;1.00;;;;;;5018975;28;20533;-63
2022/07/10 11:59:16;;;;;;;15.50;14.17;;;16.40;1.00;;;;;;5018158;28;20472;-64
2022/07/10 12:01:49;;;;;;;13.57;12.47;;;16.60;1.00;;;;;;5018538;28;20470;-65
2022/07/10 12:04:22;;;;;;;13.17;11.97;;;16.80;1.00;;;;;;5019102;28;20548;-64
2022/07/10 12:06:51;;;;;;;11.73;10.73;;;17.00;1.00;;;;;;5018823;28;20577;-63
2022/07/10 12:09:21;;;;;;;12.43;11.43;;;17.10;1.00;;;;;;5018790;28;20468;-63
2022/07/10 12:12:04;;;;;;;13.20;12.20;;;16.80;1.00;;;;;;5019085;28;20563;-64
2022/07/10 12:14:34;;;;;;;14.40;13.37;;;17.00;1.00;;;;;;5018377;28;20470;-66
2022/07/10 12:17:13;;;;;;;12.43;11.33;;;17.20;1.00;;;;;;5018748;28;20812;-68
2022/07/10 12:19:46;;;;;;;11.97;10.97;;;17.10;1.00;;;;;;5024964;28;20461;-67
2022/07/10 12:22:20;;;;;;;10.03;9.17;;;17.30;1.00;;;;;;5037914;28;20467;-66
2022/07/10 12:24:47;;;;;;;14.80;13.70;;;17.40;1.00;;;;;;5037852;28;20797;-66
2022/07/10 12:27:40;;;;;;;16.87;15.30;;;17.30;1.00;;;;;;5037869;28;20473;-65
2022/07/10 12:30:08;;;;;;;10.30;9.40;;;17.50;1.00;;;;;;5038266;28;20872;-67
2022/07/10 12:32:37;;;;;;;11.57;10.77;;;17.40;1.00;;;;;;5037743;28;20463;-68
2022/07/10 12:35:14;;;;;;;13.50;12.40;;;17.30;1.00;;;;;;5037364;28;20558;-68
2022/07/10 12:37:49;;;;;;;8.67;7.87;;;17.40;1.00;;;;;;5038351;28;20467;-68
2022/07/10 12:40:50;;;;;;;5.20;4.73;;;17.20;1.00;;;;;;5038002;28;20762;-68
2022/07/10 12:43:36;;;;;;;5.70;5.20;;;16.90;1.00;;;;;;5023359;28;20570;-67
2022/07/10 12:46:12;;;;;;;4.73;4.33;;;16.70;1.00;;;;;;5037951;28;20465;-67
2022/07/10 12:48:41;;;;;;;4.30;4.00;;;16.80;1.00;;;;;;5037554;28;20998;-66
2022/07/10 12:51:29;;;;;;;3.93;3.63;;;17.20;1.00;;;;;;5037635;28;20467;-65
2022/07/10 12:53:59;;;;;;;4.53;4.10;;;16.70;1.00;;;;;;5036630;28;20470;-66
2022/07/10 12:56:42;;;;;;;4.03;3.60;;;16.70;1.00;;;;;;4998381;28;20837;-67
2022/07/10 12:59:14;;;;;;;3.77;3.37;;;16.90;1.00;;;;;;4998076;28;20473;-67
2022/07/10 13:01:43;;;;;;;3.20;2.90;;;17.00;1.00;;;;;;4998446;28;20545;-68
2022/07/10 13:04:11;;;;;;;3.47;3.00;;;17.40;1.00;;;;;;4998367;28;20464;-65
2022/07/10 13:06:40;;;;;;;4.03;3.10;;;18.30;1.00;;;;;;4997836;28;20799;-65
2022/07/10 13:09:28;;;;;;;3.57;3.27;;;18.30;1.00;;;;;;4997694;28;20511;-65
2022/07/10 13:11:57;;;;;;;3.30;3.00;;;18.20;1.00;;;;;;4998062;28;20470;-62